Terminal Aerodrome Forecast
Issued by NWS

Home | Current Version | Previous Version | Text Only | Print | Product List | Glossary On
Versions: 1 2 3 4 5 6 7 8 9 10 11
000
FTUS43 KDLH 242300
TAFBRD
TAF
KBRD 242332Z 2500/2524 VRB03KT P6SM OVC012
     FM250800 22004KT P6SM -SN OVC007
     FM251300 VRB03KT 6SM -FZDZ BR OVC008
     FM251800 VRB03KT P6SM OVC010=

USA.gov is the U.S. government's official web portal to all federal, state and local government web resources and services.